sensor_id;sensor_type;location;lat;lon;timestamp;pressure;altitude;pressure_sealevel;temperature;humidity
61292;BME280;47165;42.664;23.368;2023-04-23T00:01:26;94990.00;;;12.01;57.16
61292;BME280;47165;42.664;23.368;2023-04-23T00:03:55;94972.00;;;11.96;57.26
61292;BME280;47165;42.664;23.368;2023-04-23T00:06:21;94978.88;;;11.97;57.35
61292;BME280;47165;42.664;23.368;2023-04-23T00:08:47;94978.63;;;11.87;57.37
61292;BME280;47165;42.664;23.368;2023-04-23T00:11:15;94978.50;;;11.75;57.45
61292;BME280;47165;42.664;23.368;2023-04-23T00:13:40;94976.19;;;11.70;57.60
61292;BME280;47165;42.664;23.368;2023-04-23T00:16:06;94977.03;;;11.71;57.36
61292;BME280;47165;42.664;23.368;2023-04-23T00:18:32;94971.53;;;11.61;57.28
61292;BME280;47165;42.664;23.368;2023-04-23T00:20:57;94981.81;;;11.64;57.50
61292;BME280;47165;42.664;23.368;2023-04-23T00:23:23;94978.63;;;11.59;57.93
61292;BME280;47165;42.664;23.368;2023-04-23T00:25:49;94978.81;;;11.56;57.73
61292;BME280;47165;42.664;23.368;2023-04-23T00:28:14;94981.50;;;11.54;57.62
61292;BME280;47165;42.664;23.368;2023-04-23T00:30:40;94971.81;;;11.56;57.70
61292;BME280;47165;42.664;23.368;2023-04-23T00:33:06;94980.69;;;11.54;57.88
61292;BME280;47165;42.664;23.368;2023-04-23T00:35:31;94979.00;;;11.53;57.82
61292;BME280;47165;42.664;23.368;2023-04-23T00:37:57;94977.53;;;11.63;57.47
61292;BME280;47165;42.664;23.368;2023-04-23T00:40:22;94969.84;;;11.60;57.40
61292;BME280;47165;42.664;23.368;2023-04-23T00:42:49;94971.91;;;11.55;57.26
61292;BME280;47165;42.664;23.368;2023-04-23T00:45:16;94965.44;;;11.46;57.54
61292;BME280;47165;42.664;23.368;2023-04-23T00:47:42;94965.00;;;11.39;57.67
61292;BME280;47165;42.664;23.368;2023-04-23T00:50:08;94968.44;;;11.40;57.89
61292;BME280;47165;42.664;23.368;2023-04-23T00:52:33;94979.56;;;11.43;57.71
61292;BME280;47165;42.664;23.368;2023-04-23T00:55:00;94970.97;;;11.41;57.60
61292;BME280;47165;42.664;23.368;2023-04-23T00:57:26;94975.06;;;11.31;57.83
61292;BME280;47165;42.664;23.368;2023-04-23T00:59:52;94964.63;;;11.31;57.77
61292;BME280;47165;42.664;23.368;2023-04-23T01:02:19;94973.66;;;11.25;57.60
61292;BME280;47165;42.664;23.368;2023-04-23T01:04:46;94972.16;;;11.21;57.44
61292;BME280;47165;42.664;23.368;2023-04-23T01:07:15;94975.25;;;11.14;57.69
61292;BME280;47165;42.664;23.368;2023-04-23T01:09:41;94973.75;;;11.10;58.05
61292;BME280;47165;42.664;23.368;2023-04-23T01:12:07;94969.66;;;11.05;58.02
61292;BME280;47165;42.664;23.368;2023-04-23T01:14:36;94969.28;;;11.12;58.32
61292;BME280;47165;42.664;23.368;2023-04-23T01:17:02;94970.28;;;11.09;58.63
61292;BME280;47165;42.664;23.368;2023-04-23T01:19:27;94964.78;;;10.99;58.21
61292;BME280;47165;42.664;23.368;2023-04-23T01:21:53;94964.59;;;11.02;57.73
61292;BME280;47165;42.664;23.368;2023-04-23T01:24:19;94976.16;;;10.98;58.38
61292;BME280;47165;42.664;23.368;2023-04-23T01:26:45;94970.38;;;10.93;58.93
61292;BME280;47165;42.664;23.368;2023-04-23T01:29:11;94976.13;;;10.84;58.44
61292;BME280;47165;42.664;23.368;2023-04-23T01:31:37;94969.75;;;10.74;58.91
61292;BME280;47165;42.664;23.368;2023-04-23T01:34:02;94975.56;;;10.79;58.97
61292;BME280;47165;42.664;23.368;2023-04-23T01:36:28;94978.53;;;10.73;59.27
61292;BME280;47165;42.664;23.368;2023-04-23T01:38:54;94980.19;;;10.74;58.77
61292;BME280;47165;42.664;23.368;2023-04-23T01:41:19;94984.13;;;10.66;59.82
61292;BME280;47165;42.664;23.368;2023-04-23T01:43:45;94980.34;;;10.56;59.81
61292;BME280;47165;42.664;23.368;2023-04-23T01:46:11;94981.25;;;10.55;60.17
61292;BME280;47165;42.664;23.368;2023-04-23T01:48:37;94988.75;;;10.61;59.71
61292;BME280;47165;42.664;23.368;2023-04-23T01:51:03;94980.59;;;10.52;59.52
61292;BME280;47165;42.664;23.368;2023-04-23T01:53:28;94990.19;;;10.51;60.10
61292;BME280;47165;42.664;23.368;2023-04-23T01:55:54;94986.25;;;10.44;59.40
61292;BME280;47165;42.664;23.368;2023-04-23T01:58:21;94990.13;;;10.37;59.07
61292;BME280;47165;42.664;23.368;2023-04-23T02:00:48;94992.06;;;10.33;59.61
61292;BME280;47165;42.664;23.368;2023-04-23T02:03:13;94987.09;;;10.28;59.99
61292;BME280;47165;42.664;23.368;2023-04-23T02:05:39;94985.31;;;10.29;60.39
61292;BME280;47165;42.664;23.368;2023-04-23T02:08:05;94981.88;;;10.28;60.40
61292;BME280;47165;42.664;23.368;2023-04-23T02:10:31;94985.31;;;10.29;59.88
61292;BME280;47165;42.664;23.368;2023-04-23T02:12:57;94987.53;;;10.37;59.60
61292;BME280;47165;42.664;23.368;2023-04-23T02:15:23;94986.31;;;10.26;59.84
61292;BME280;47165;42.664;23.368;2023-04-23T02:17:49;94990.88;;;10.23;59.67
61292;BME280;47165;42.664;23.368;2023-04-23T02:20:17;94991.72;;;10.23;59.83
61292;BME280;47165;42.664;23.368;2023-04-23T02:22:43;94991.53;;;10.26;59.86
61292;BME280;47165;42.664;23.368;2023-04-23T02:25:10;94990.22;;;10.19;59.86
61292;BME280;47165;42.664;23.368;2023-04-23T02:27:36;94988.44;;;10.04;60.32
61292;BME280;47165;42.664;23.368;2023-04-23T02:30:02;94997.88;;;10.06;60.14
61292;BME280;47165;42.664;23.368;2023-04-23T02:32:27;94992.91;;;10.02;60.34
61292;BME280;47165;42.664;23.368;2023-04-23T02:34:53;94998.97;;;10.02;60.61
61292;BME280;47165;42.664;23.368;2023-04-23T02:37:18;94990.91;;;10.07;59.93
61292;BME280;47165;42.664;23.368;2023-04-23T02:39:44;94992.56;;;9.92;60.33
61292;BME280;47165;42.664;23.368;2023-04-23T02:42:10;94988.44;;;9.88;60.72
61292;BME280;47165;42.664;23.368;2023-04-23T02:44:35;94996.78;;;9.95;60.82
61292;BME280;47165;42.664;23.368;2023-04-23T02:47:01;94996.59;;;9.98;60.84
61292;BME280;47165;42.664;23.368;2023-04-23T02:49:26;94994.59;;;10.03;60.84
61292;BME280;47165;42.664;23.368;2023-04-23T02:51:52;94997.97;;;10.05;60.64
61292;BME280;47165;42.664;23.368;2023-04-23T02:54:17;94994.25;;;10.09;60.12
61292;BME280;47165;42.664;23.368;2023-04-23T02:56:43;94994.06;;;9.96;59.65
61292;BME280;47165;42.664;23.368;2023-04-23T02:59:08;95000.50;;;9.91;60.25
61292;BME280;47165;42.664;23.368;2023-04-23T03:01:34;94997.13;;;9.89;60.76
61292;BME280;47165;42.664;23.368;2023-04-23T03:04:00;95002.50;;;9.85;60.78
61292;BME280;47165;42.664;23.368;2023-04-23T03:06:25;94998.38;;;9.81;61.18
61292;BME280;47165;42.664;23.368;2023-04-23T03:08:51;94992.72;;;9.73;61.40
61292;BME280;47165;42.664;23.368;2023-04-23T03:11:16;94996.09;;;9.75;61.66
61292;BME280;47165;42.664;23.368;2023-04-23T03:13:42;95007.78;;;9.68;62.40
61292;BME280;47165;42.664;23.368;2023-04-23T03:16:07;95010.63;;;9.63;63.18
61292;BME280;47165;42.664;23.368;2023-04-23T03:18:33;95005.31;;;9.65;63.61
61292;BME280;47165;42.664;23.368;2023-04-23T03:20:58;95009.53;;;9.67;63.35
61292;BME280;47165;42.664;23.368;2023-04-23T03:23:24;95016.50;;;9.67;63.42
61292;BME280;47165;42.664;23.368;2023-04-23T03:25:49;95011.47;;;9.64;62.60
61292;BME280;47165;42.664;23.368;2023-04-23T03:28:15;95012.06;;;9.69;63.18
61292;BME280;47165;42.664;23.368;2023-04-23T03:30:40;95014.22;;;9.61;62.56
61292;BME280;47165;42.664;23.368;2023-04-23T03:33:06;95015.50;;;9.54;62.99
61292;BME280;47165;42.664;23.368;2023-04-23T03:35:31;95015.06;;;9.45;63.52
61292;BME280;47165;42.664;23.368;2023-04-23T03:37:57;95021.25;;;9.43;63.80
61292;BME280;47165;42.664;23.368;2023-04-23T03:40:22;95018.56;;;9.44;61.96
61292;BME280;47165;42.664;23.368;2023-04-23T03:42:48;95018.75;;;9.41;62.54
61292;BME280;47165;42.664;23.368;2023-04-23T03:45:14;95025.94;;;9.36;62.76
61292;BME280;47165;42.664;23.368;2023-04-23T03:47:41;95025.03;;;9.37;63.01
61292;BME280;47165;42.664;23.368;2023-04-23T03:50:07;95026.56;;;9.41;61.74
61292;BME280;47165;42.664;23.368;2023-04-23T03:52:33;95023.28;;;9.38;62.37
61292;BME280;47165;42.664;23.368;2023-04-23T03:54:59;95024.09;;;9.38;63.05
61292;BME280;47165;42.664;23.368;2023-04-23T03:57:24;95022.25;;;9.40;63.23
61292;BME280;47165;42.664;23.368;2023-04-23T03:59:49;95024.16;;;9.37;63.12
61292;BME280;47165;42.664;23.368;2023-04-23T04:02:15;95028.31;;;9.41;62.97
61292;BME280;47165;42.664;23.368;2023-04-23T04:04:41;95037.00;;;9.41;61.97
61292;BME280;47165;42.664;23.368;2023-04-23T04:07:07;95033.50;;;9.41;62.82
61292;BME280;47165;42.664;23.368;2023-04-23T04:09:36;95031.00;;;9.39;62.62
61292;BME280;47165;42.664;23.368;2023-04-23T04:12:02;95034.38;;;9.41;62.83
61292;BME280;47165;42.664;23.368;2023-04-23T04:14:28;95034.38;;;9.41;62.54
61292;BME280;47165;42.664;23.368;2023-04-23T04:16:53;95038.59;;;9.44;62.52
61292;BME280;47165;42.664;23.368;2023-04-23T04:19:19;95043.78;;;9.44;62.73
61292;BME280;47165;42.664;23.368;2023-04-23T04:21:44;95043.63;;;9.47;62.59
61292;BME280;47165;42.664;23.368;2023-04-23T04:24:10;95042.41;;;9.37;62.83
61292;BME280;47165;42.664;23.368;2023-04-23T04:26:36;95046.66;;;9.39;62.87
61292;BME280;47165;42.664;23.368;2023-04-23T04:29:01;95040.56;;;9.39;62.91
61292;BME280;47165;42.664;23.368;2023-04-23T04:31:27;95038.84;;;9.39;63.09
61292;BME280;47165;42.664;23.368;2023-04-23T04:33:56;95046.53;;;9.41;63.15
61292;BME280;47165;42.664;23.368;2023-04-23T04:36:23;95042.03;;;9.44;63.46
61292;BME280;47165;42.664;23.368;2023-04-23T04:38:50;95049.69;;;9.48;63.25
61292;BME280;47165;42.664;23.368;2023-04-23T04:41:16;95052.06;;;9.52;63.51
61292;BME280;47165;42.664;23.368;2023-04-23T04:43:44;95050.28;;;9.53;63.25
61292;BME280;47165;42.664;23.368;2023-04-23T04:46:10;95052.06;;;9.52;63.88
61292;BME280;47165;42.664;23.368;2023-04-23T04:48:39;95057.53;;;9.48;64.68
61292;BME280;47165;42.664;23.368;2023-04-23T04:51:05;95060.78;;;9.51;64.92
61292;BME280;47165;42.664;23.368;2023-04-23T04:53:31;95056.44;;;9.52;65.27
61292;BME280;47165;42.664;23.368;2023-04-23T04:55:56;95054.41;;;9.57;65.86
61292;BME280;47165;42.664;23.368;2023-04-23T04:58:22;95064.69;;;9.60;65.67
61292;BME280;47165;42.664;23.368;2023-04-23T05:00:47;95054.94;;;9.63;65.70
61292;BME280;47165;42.664;23.368;2023-04-23T05:03:19;95060.19;;;9.79;65.64
61292;BME280;47165;42.664;23.368;2023-04-23T05:05:45;95059.44;;;9.77;65.83
61292;BME280;47165;42.664;23.368;2023-04-23T05:08:11;95062.31;;;9.89;65.78
61292;BME280;47165;42.664;23.368;2023-04-23T05:10:37;95064.59;;;9.95;65.43
61292;BME280;47165;42.664;23.368;2023-04-23T05:13:03;95065.03;;;10.03;64.95
61292;BME280;47165;42.664;23.368;2023-04-23T05:15:28;95063.09;;;10.06;65.47
61292;BME280;47165;42.664;23.368;2023-04-23T05:17:54;95062.75;;;10.13;65.06
61292;BME280;47165;42.664;23.368;2023-04-23T05:20:20;95066.78;;;10.18;65.02
61292;BME280;47165;42.664;23.368;2023-04-23T05:22:46;95062.09;;;10.25;65.08
61292;BME280;47165;42.664;23.368;2023-04-23T05:25:11;95058.38;;;10.29;65.20
61292;BME280;47165;42.664;23.368;2023-04-23T05:27:37;95064.53;;;10.28;65.51
61292;BME280;47165;42.664;23.368;2023-04-23T05:30:05;95063.28;;;10.35;64.84
61292;BME280;47165;42.664;23.368;2023-04-23T05:32:32;95066.31;;;10.43;64.46
61292;BME280;47165;42.664;23.368;2023-04-23T05:34:59;95066.16;;;10.46;64.69
61292;BME280;47165;42.664;23.368;2023-04-23T05:37:24;95066.50;;;10.56;64.07
61292;BME280;47165;42.664;23.368;2023-04-23T05:39:50;95068.66;;;10.64;64.07
61292;BME280;47165;42.664;23.368;2023-04-23T05:42:15;95068.59;;;10.65;64.55
61292;BME280;47165;42.664;23.368;2023-04-23T05:44:41;95074.22;;;10.74;64.47
61292;BME280;47165;42.664;23.368;2023-04-23T05:47:06;95071.88;;;10.69;65.05
61292;BME280;47165;42.664;23.368;2023-04-23T05:49:33;95072.38;;;10.60;65.17
61292;BME280;47165;42.664;23.368;2023-04-23T05:51:59;95075.41;;;10.68;64.97
61292;BME280;47165;42.664;23.368;2023-04-23T05:54:26;95069.66;;;10.77;64.62
61292;BME280;47165;42.664;23.368;2023-04-23T05:56:52;95065.88;;;10.83;64.53
61292;BME280;47165;42.664;23.368;2023-04-23T05:59:17;95067.28;;;10.88;64.14
61292;BME280;47165;42.664;23.368;2023-04-23T06:01:43;95071.66;;;10.88;64.35
61292;BME280;47165;42.664;23.368;2023-04-23T06:04:08;95073.56;;;11.00;63.89
61292;BME280;47165;42.664;23.368;2023-04-23T06:06:34;95075.06;;;11.04;63.36
61292;BME280;47165;42.664;23.368;2023-04-23T06:08:59;95076.97;;;11.17;63.08
61292;BME280;47165;42.664;23.368;2023-04-23T06:11:24;95069.91;;;11.19;63.17
61292;BME280;47165;42.664;23.368;2023-04-23T06:13:50;95072.00;;;11.28;62.65
61292;BME280;47165;42.664;23.368;2023-04-23T06:16:16;95066.19;;;11.37;62.69
61292;BME280;47165;42.664;23.368;2023-04-23T06:18:41;95060.53;;;11.45;62.60
61292;BME280;47165;42.664;23.368;2023-04-23T06:21:07;95060.88;;;11.24;63.50
61292;BME280;47165;42.664;23.368;2023-04-23T06:23:33;95063.59;;;11.37;63.09
61292;BME280;47165;42.664;23.368;2023-04-23T06:25:58;95070.03;;;11.46;62.49
61292;BME280;47165;42.664;23.368;2023-04-23T06:28:25;95057.09;;;11.59;62.34
61292;BME280;47165;42.664;23.368;2023-04-23T06:30:51;95068.03;;;11.65;62.22
61292;BME280;47165;42.664;23.368;2023-04-23T06:33:17;95073.25;;;11.65;62.93
61292;BME280;47165;42.664;23.368;2023-04-23T06:35:42;95070.34;;;11.56;63.63
61292;BME280;47165;42.664;23.368;2023-04-23T06:38:08;95061.59;;;11.71;63.09
61292;BME280;47165;42.664;23.368;2023-04-23T06:40:33;95062.41;;;11.72;63.17
61292;BME280;47165;42.664;23.368;2023-04-23T06:42:58;95058.22;;;11.69;62.40
61292;BME280;47165;42.664;23.368;2023-04-23T06:45:29;95066.63;;;11.74;63.20
61292;BME280;47165;42.664;23.368;2023-04-23T06:47:56;95066.47;;;11.92;62.77
61292;BME280;47165;42.664;23.368;2023-04-23T06:50:21;95063.09;;;12.04;62.30
61292;BME280;47165;42.664;23.368;2023-04-23T06:52:47;95065.13;;;12.13;62.35
61292;BME280;47165;42.664;23.368;2023-04-23T06:55:12;95065.31;;;12.24;62.32
61292;BME280;47165;42.664;23.368;2023-04-23T06:57:38;95061.75;;;12.25;62.38
61292;BME280;47165;42.664;23.368;2023-04-23T07:00:03;95056.31;;;12.43;62.10
61292;BME280;47165;42.664;23.368;2023-04-23T07:02:33;95049.41;;;12.27;62.29
61292;BME280;47165;42.664;23.368;2023-04-23T07:04:58;95057.06;;;12.45;61.77
61292;BME280;47165;42.664;23.368;2023-04-23T07:07:24;95053.09;;;12.52;61.77
61292;BME280;47165;42.664;23.368;2023-04-23T07:09:50;95059.59;;;12.74;61.19
61292;BME280;47165;42.664;23.368;2023-04-23T07:12:15;95058.88;;;12.84;60.77
61292;BME280;47165;42.664;23.368;2023-04-23T07:14:41;95057.44;;;12.93;60.35
61292;BME280;47165;42.664;23.368;2023-04-23T07:17:07;95056.00;;;13.02;60.04
61292;BME280;47165;42.664;23.368;2023-04-23T07:19:32;95057.66;;;12.90;59.77
61292;BME280;47165;42.664;23.368;2023-04-23T07:21:57;95054.31;;;13.01;59.72
61292;BME280;47165;42.664;23.368;2023-04-23T07:24:23;95049.78;;;12.90;60.16
61292;BME280;47165;42.664;23.368;2023-04-23T07:26:50;95051.09;;;13.10;59.96
61292;BME280;47165;42.664;23.368;2023-04-23T07:29:16;95051.66;;;13.28;59.32
61292;BME280;47165;42.664;23.368;2023-04-23T07:31:41;95043.72;;;13.42;58.78
61292;BME280;47165;42.664;23.368;2023-04-23T07:34:07;95048.88;;;13.57;58.71
61292;BME280;47165;42.664;23.368;2023-04-23T07:36:34;95049.19;;;13.65;58.26
61292;BME280;47165;42.664;23.368;2023-04-23T07:38:59;95047.84;;;13.72;58.01
61292;BME280;47165;42.664;23.368;2023-04-23T07:41:25;95048.16;;;13.80;57.88
61292;BME280;47165;42.664;23.368;2023-04-23T07:43:50;95046.78;;;13.62;57.33
61292;BME280;47165;42.664;23.368;2023-04-23T07:46:16;95051.94;;;13.76;57.45
61292;BME280;47165;42.664;23.368;2023-04-23T07:48:41;95050.03;;;13.91;57.69
61292;BME280;47165;42.664;23.368;2023-04-23T07:51:07;95047.09;;;13.70;57.44
61292;BME280;47165;42.664;23.368;2023-04-23T07:53:33;95036.16;;;14.02;57.67
61292;BME280;47165;42.664;23.368;2023-04-23T07:55:59;95044.84;;;14.15;57.68
61292;BME280;47165;42.664;23.368;2023-04-23T07:58:24;95049.69;;;14.45;57.18
61292;BME280;47165;42.664;23.368;2023-04-23T08:00:50;95044.94;;;14.63;56.62
61292;BME280;47165;42.664;23.368;2023-04-23T08:03:15;95047.66;;;14.75;55.83
61292;BME280;47165;42.664;23.368;2023-04-23T08:05:41;95034.06;;;14.81;55.37
61292;BME280;47165;42.664;23.368;2023-04-23T08:08:07;95046.53;;;14.90;54.86
61292;BME280;47165;42.664;23.368;2023-04-23T08:10:33;95049.59;;;15.08;54.68
61292;BME280;47165;42.664;23.368;2023-04-23T08:12:59;95044.97;;;15.23;54.14
61292;BME280;47165;42.664;23.368;2023-04-23T08:15:25;95042.44;;;15.21;53.28
61292;BME280;47165;42.664;23.368;2023-04-23T08:17:50;95032.59;;;15.47;53.18
61292;BME280;47165;42.664;23.368;2023-04-23T08:20:16;95039.09;;;15.55;52.12
61292;BME280;47165;42.664;23.368;2023-04-23T08:22:42;95034.56;;;15.68;52.61
61292;BME280;47165;42.664;23.368;2023-04-23T08:25:08;95033.16;;;15.75;51.86
61292;BME280;47165;42.664;23.368;2023-04-23T08:27:33;95030.97;;;15.69;52.00
61292;BME280;47165;42.664;23.368;2023-04-23T08:29:59;95031.00;;;15.80;51.31
61292;BME280;47165;42.664;23.368;2023-04-23T08:32:24;95022.63;;;15.86;51.93
61292;BME280;47165;42.664;23.368;2023-04-23T08:34:50;95020.84;;;16.09;52.39
61292;BME280;47165;42.664;23.368;2023-04-23T08:37:15;95013.75;;;16.21;50.42
61292;BME280;47165;42.664;23.368;2023-04-23T08:39:40;95011.97;;;16.33;49.32
61292;BME280;47165;42.664;23.368;2023-04-23T08:42:12;95013.28;;;16.05;49.64
61292;BME280;47165;42.664;23.368;2023-04-23T08:44:40;95007.06;;;16.28;49.06
61292;BME280;47165;42.664;23.368;2023-04-23T08:47:07;95005.03;;;16.21;49.08
61292;BME280;47165;42.664;23.368;2023-04-23T08:49:36;95018.34;;;16.63;49.39
61292;BME280;47165;42.664;23.368;2023-04-23T08:52:15;95012.22;;;16.85;48.94
61292;BME280;47165;42.664;23.368;2023-04-23T08:54:45;95003.06;;;17.00;48.78
61292;BME280;47165;42.664;23.368;2023-04-23T08:57:12;95005.63;;;17.12;48.82
61292;BME280;47165;42.664;23.368;2023-04-23T08:59:40;95002.25;;;17.21;46.63
61292;BME280;47165;42.664;23.368;2023-04-23T09:02:07;95005.41;;;17.15;45.02
61292;BME280;47165;42.664;23.368;2023-04-23T09:04:35;94997.09;;;17.40;46.09
61292;BME280;47165;42.664;23.368;2023-04-23T09:07:01;94996.50;;;17.58;45.66
61292;BME280;47165;42.664;23.368;2023-04-23T09:09:28;94995.94;;;17.54;44.22
61292;BME280;47165;42.664;23.368;2023-04-23T09:11:57;94994.38;;;17.52;44.11
61292;BME280;47165;42.664;23.368;2023-04-23T09:14:23;94993.41;;;17.53;44.29
61292;BME280;47165;42.664;23.368;2023-04-23T09:16:52;94990.31;;;17.05;44.21
61292;BME280;47165;42.664;23.368;2023-04-23T09:19:18;94996.31;;;17.28;44.86
61292;BME280;47165;42.664;23.368;2023-04-23T09:21:44;94982.34;;;17.38;45.04
61292;BME280;47165;42.664;23.368;2023-04-23T09:24:11;94986.78;;;17.58;43.87
61292;BME280;47165;42.664;23.368;2023-04-23T09:26:47;94983.91;;;17.71;42.93
61292;BME280;47165;42.664;23.368;2023-04-23T09:29:14;94984.59;;;17.94;43.92
61292;BME280;47165;42.664;23.368;2023-04-23T09:31:46;94985.47;;;17.95;43.27
61292;BME280;47165;42.664;23.368;2023-04-23T09:34:16;94983.00;;;18.13;43.46
61292;BME280;47165;42.664;23.368;2023-04-23T09:36:43;94971.81;;;18.30;42.60
61292;BME280;47165;42.664;23.368;2023-04-23T09:39:17;94972.69;;;18.50;41.76
61292;BME280;47165;42.664;23.368;2023-04-23T09:41:43;94966.25;;;18.43;40.52
61292;BME280;47165;42.664;23.368;2023-04-23T09:44:10;94968.97;;;18.62;41.01
61292;BME280;47165;42.664;23.368;2023-04-23T09:46:40;94964.81;;;18.79;41.46
61292;BME280;47165;42.664;23.368;2023-04-23T09:49:07;94951.28;;;18.82;39.87
61292;BME280;47165;42.664;23.368;2023-04-23T09:51:38;94956.69;;;18.42;38.49
61292;BME280;47165;42.664;23.368;2023-04-23T09:54:11;94953.50;;;18.67;39.45
61292;BME280;47165;42.664;23.368;2023-04-23T09:56:37;94953.25;;;18.80;39.56
61292;BME280;47165;42.664;23.368;2023-04-23T10:01:50;94944.88;;;19.04;40.18
61292;BME280;47165;42.664;23.368;2023-04-23T10:04:23;94950.44;;;19.11;38.50
61292;BME280;47165;42.664;23.368;2023-04-23T10:06:56;94944.31;;;19.30;40.80
61292;BME280;47165;42.664;23.368;2023-04-23T10:09:23;94939.09;;;19.48;41.17
61292;BME280;47165;42.664;23.368;2023-04-23T10:11:59;94925.25;;;19.64;41.15
61292;BME280;47165;42.664;23.368;2023-04-23T10:14:29;94929.69;;;19.83;39.26
61292;BME280;47165;42.664;23.368;2023-04-23T10:17:02;94935.09;;;19.91;37.31
61292;BME280;47165;42.664;23.368;2023-04-23T10:19:29;94919.44;;;19.98;38.02
61292;BME280;47165;42.664;23.368;2023-04-23T10:22:00;94917.59;;;20.08;36.44
61292;BME280;47165;42.664;23.368;2023-04-23T10:24:31;94922.69;;;19.92;35.27
61292;BME280;47165;42.664;23.368;2023-04-23T10:27:02;94912.78;;;19.46;35.05
61292;BME280;47165;42.664;23.368;2023-04-23T10:29:32;94907.03;;;19.61;36.67
61292;BME280;47165;42.664;23.368;2023-04-23T10:32:00;94909.75;;;19.79;35.45
61292;BME280;47165;42.664;23.368;2023-04-23T10:34:27;94902.28;;;20.02;37.06
61292;BME280;47165;42.664;23.368;2023-04-23T10:36:54;94895.19;;;20.20;35.94
61292;BME280;47165;42.664;23.368;2023-04-23T10:39:21;94896.66;;;20.33;35.04
61292;BME280;47165;42.664;23.368;2023-04-23T10:41:48;94889.75;;;20.40;35.15
61292;BME280;47165;42.664;23.368;2023-04-23T10:44:14;94898.97;;;20.63;35.14
61292;BME280;47165;42.664;23.368;2023-04-23T10:46:53;94890.09;;;20.90;33.79
61292;BME280;47165;42.664;23.368;2023-04-23T10:49:21;94880.56;;;20.80;32.86
61292;BME280;47165;42.664;23.368;2023-04-23T10:51:47;94887.16;;;20.76;33.66
61292;BME280;47165;42.664;23.368;2023-04-23T10:54:14;94884.91;;;20.89;32.86
61292;BME280;47165;42.664;23.368;2023-04-23T10:56:40;94875.94;;;21.08;31.98
61292;BME280;47165;42.664;23.368;2023-04-23T10:59:07;94878.25;;;21.29;32.22
61292;BME280;47165;42.664;23.368;2023-04-23T11:01:45;94866.91;;;21.45;29.68
61292;BME280;47165;42.664;23.368;2023-04-23T11:04:28;94853.50;;;21.28;30.94
61292;BME280;47165;42.664;23.368;2023-04-23T11:06:56;94851.72;;;21.63;30.35
61292;BME280;47165;42.664;23.368;2023-04-23T11:12:00;94860.81;;;21.87;30.16
61292;BME280;47165;42.664;23.368;2023-04-23T11:14:34;94846.09;;;22.01;29.43
61292;BME280;47165;42.664;23.368;2023-04-23T11:17:01;94854.13;;;22.17;31.84
61292;BME280;47165;42.664;23.368;2023-04-23T11:19:27;94840.63;;;22.19;28.28
61292;BME280;47165;42.664;23.368;2023-04-23T11:22:04;94838.06;;;22.52;30.30
61292;BME280;47165;42.664;23.368;2023-04-23T11:24:31;94829.88;;;22.28;28.38
61292;BME280;47165;42.664;23.368;2023-04-23T11:26:58;94828.09;;;22.54;29.18
61292;BME280;47165;42.664;23.368;2023-04-23T11:29:25;94828.28;;;23.01;30.22
61292;BME280;47165;42.664;23.368;2023-04-23T11:31:52;94822.50;;;23.54;28.54
61292;BME280;47165;42.664;23.368;2023-04-23T11:34:18;94816.13;;;23.79;26.92
61292;BME280;47165;42.664;23.368;2023-04-23T11:36:45;94814.41;;;23.86;26.22
61292;BME280;47165;42.664;23.368;2023-04-23T11:39:11;94812.72;;;23.38;25.59
61292;BME280;47165;42.664;23.368;2023-04-23T11:41:36;94818.97;;;23.69;27.58
61292;BME280;47165;42.664;23.368;2023-04-23T11:44:02;94812.41;;;23.88;26.25
61292;BME280;47165;42.664;23.368;2023-04-23T11:46:28;94808.38;;;23.93;26.14
61292;BME280;47165;42.664;23.368;2023-04-23T11:48:54;94805.75;;;23.84;26.78
61292;BME280;47165;42.664;23.368;2023-04-23T11:51:26;94805.16;;;24.37;26.45
61292;BME280;47165;42.664;23.368;2023-04-23T11:53:51;94804.72;;;24.94;24.10
61292;BME280;47165;42.664;23.368;2023-04-23T11:56:17;94795.13;;;25.23;22.70
61292;BME280;47165;42.664;23.368;2023-04-23T11:58:44;94790.66;;;26.19;22.14
61292;BME280;47165;42.664;23.368;2023-04-23T12:01:10;94789.09;;;27.18;21.80
61292;BME280;47165;42.664;23.368;2023-04-23T12:03:39;94786.19;;;27.76;19.75
61292;BME280;47165;42.664;23.368;2023-04-23T12:06:05;94790.66;;;27.68;20.86
61292;BME280;47165;42.664;23.368;2023-04-23T12:08:33;94778.53;;;27.38;20.31
61292;BME280;47165;42.664;23.368;2023-04-23T12:11:01;94781.16;;;27.03;20.58
61292;BME280;47165;42.664;23.368;2023-04-23T12:13:29;94778.09;;;26.84;22.30
61292;BME280;47165;42.664;23.368;2023-04-23T12:16:01;94786.38;;;26.83;22.54
61292;BME280;47165;42.664;23.368;2023-04-23T12:18:38;94784.91;;;26.59;22.59
61292;BME280;47165;42.664;23.368;2023-04-23T12:21:08;94782.13;;;26.30;22.34
61292;BME280;47165;42.664;23.368;2023-04-23T12:23:35;94784.09;;;27.08;21.85
61292;BME280;47165;42.664;23.368;2023-04-23T12:26:02;94772.16;;;28.28;18.99
61292;BME280;47165;42.664;23.368;2023-04-23T12:28:28;94759.56;;;29.69;19.13
61292;BME280;47165;42.664;23.368;2023-04-23T12:30:58;94757.16;;;29.07;17.63
61292;BME280;47165;42.664;23.368;2023-04-23T12:33:27;94751.69;;;29.67;17.54
61292;BME280;47165;42.664;23.368;2023-04-23T12:35:53;94753.00;;;29.52;19.08
61292;BME280;47165;42.664;23.368;2023-04-23T12:38:29;94749.59;;;29.83;17.63
61292;BME280;47165;42.664;23.368;2023-04-23T12:40:58;94753.94;;;30.36;17.62
61292;BME280;47165;42.664;23.368;2023-04-23T12:43:26;94752.56;;;28.48;17.01
61292;BME280;47165;42.664;23.368;2023-04-23T12:45:54;94755.09;;;28.63;18.58
61292;BME280;47165;42.664;23.368;2023-04-23T12:48:20;94750.34;;;28.58;19.13
61292;BME280;47165;42.664;23.368;2023-04-23T12:50:46;94740.19;;;28.47;20.01
61292;BME280;47165;42.664;23.368;2023-04-23T12:53:13;94745.88;;;28.04;20.50
61292;BME280;47165;42.664;23.368;2023-04-23T12:55:38;94750.69;;;26.82;19.45